createdAt,value
2018-04-13T00:01:25.839Z,13.17
2018-04-13T00:04:29.153Z,12.77
2018-04-13T00:07:33.225Z,12.73
2018-04-13T00:10:36.534Z,13.40
2018-04-13T00:13:39.838Z,12.83
2018-04-13T00:16:43.177Z,12.83
2018-04-13T00:19:46.473Z,12.80
2018-04-13T00:22:49.789Z,13.10
2018-04-13T00:25:53.086Z,12.47
2018-04-13T00:28:56.405Z,12.77
2018-04-13T00:31:59.696Z,12.87
2018-04-13T00:35:08.714Z,13.30
2018-04-13T00:38:12.070Z,13.10
2018-04-13T00:41:15.333Z,12.60
2018-04-13T00:44:18.653Z,14.10
2018-04-13T00:47:21.949Z,13.97
2018-04-13T00:50:25.262Z,14.63
2018-04-13T00:53:30.154Z,13.87
2018-04-13T00:56:33.490Z,14.10
2018-04-13T00:59:37.556Z,15.13
2018-04-13T01:02:40.889Z,13.73
2018-04-13T01:05:44.957Z,13.07
2018-04-13T01:08:49.041Z,13.80
2018-04-13T01:11:52.344Z,13.23
2018-04-13T01:14:55.665Z,13.37
2018-04-13T01:17:58.980Z,12.90
2018-04-13T01:21:02.278Z,13.37
2018-04-13T01:24:05.597Z,14.97
2018-04-13T01:27:08.897Z,14.03
2018-04-13T01:30:12.997Z,14.17
2018-04-13T01:33:16.298Z,14.33
2018-04-13T01:36:19.621Z,14.07
2018-04-13T01:39:23.716Z,13.97
2018-04-13T01:42:27.014Z,13.43
2018-04-13T01:45:30.327Z,13.83
2018-04-13T01:48:34.389Z,14.77
2018-04-13T01:51:37.710Z,14.97
2018-04-13T01:54:41.012Z,13.17
2018-04-13T01:57:44.330Z,13.77
2018-04-13T02:00:48.424Z,14.00
2018-04-13T02:03:51.756Z,13.40
2018-04-13T02:06:55.061Z,13.30
2018-04-13T02:09:59.150Z,14.23
2018-04-13T02:13:03.233Z,14.93
2018-04-13T02:16:06.583Z,14.47
2018-04-13T02:19:09.866Z,15.57
2018-04-13T02:22:13.162Z,14.70
2018-04-13T02:25:16.477Z,15.50
2018-04-13T02:28:19.773Z,15.33
2018-04-13T02:31:23.084Z,15.47
2018-04-13T02:34:26.494Z,15.67
2018-04-13T02:37:29.722Z,15.60
2018-04-13T02:40:33.794Z,15.03
2018-04-13T02:43:37.112Z,16.33
2018-04-13T02:46:40.425Z,15.87
2018-04-13T02:49:43.749Z,15.77
2018-04-13T02:52:47.074Z,15.83
2018-04-13T02:55:50.373Z,15.67
2018-04-13T02:58:54.463Z,15.83
2018-04-13T03:01:57.768Z,16.07
2018-04-13T03:05:01.090Z,15.77
2018-04-13T03:08:04.385Z,16.70
2018-04-13T03:11:07.705Z,16.27
2018-04-13T03:14:11.005Z,16.27
2018-04-13T03:17:14.330Z,16.83
2018-04-13T03:20:17.632Z,17.17
2018-04-13T03:23:21.809Z,16.20
2018-04-13T03:26:25.143Z,15.90
2018-04-13T03:29:28.448Z,16.23
2018-04-13T03:32:31.782Z,17.23
2018-04-13T03:35:35.083Z,16.70
2018-04-13T03:38:38.421Z,18.00
2018-04-13T03:41:42.515Z,17.30
2018-04-13T03:44:45.830Z,17.30
2018-04-13T03:47:49.914Z,17.20
2018-04-13T03:50:53.240Z,17.40
2018-04-13T03:53:57.315Z,18.30
2018-04-13T03:57:00.652Z,18.37
2018-04-13T04:00:04.717Z,18.97
2018-04-13T04:03:08.046Z,19.50
2018-04-13T04:06:11.344Z,19.10
2018-04-13T04:09:14.666Z,17.43
2018-04-13T04:12:17.976Z,19.67
2018-04-13T04:15:21.297Z,18.17
2018-04-13T04:18:24.606Z,18.97
2018-04-13T04:21:45.548Z,18.70
2018-04-13T04:25:07.154Z,18.83
2018-04-13T04:28:10.453Z,19.63
2018-04-13T04:31:14.620Z,19.13
2018-04-13T04:34:17.925Z,19.63
2018-04-13T04:37:21.249Z,20.37
2018-04-13T04:40:24.549Z,21.03
2018-04-13T04:43:27.890Z,20.53
2018-04-13T04:46:31.201Z,21.03
2018-04-13T04:49:35.290Z,21.20
2018-04-13T04:52:39.362Z,21.23
2018-04-13T04:55:42.693Z,20.43
2018-04-13T04:58:46.782Z,21.70
2018-04-13T05:01:50.121Z,21.13
2018-04-13T05:04:53.450Z,21.10
2018-04-13T05:07:56.758Z,21.47
2018-04-13T05:11:00.090Z,21.43
2018-04-13T05:14:04.156Z,22.17
2018-04-13T05:17:07.486Z,21.83
2018-04-13T05:20:10.805Z,21.17
2018-04-13T05:23:14.194Z,22.40
2018-04-13T05:26:17.517Z,21.00
2018-04-13T05:29:20.899Z,22.50
2018-04-13T05:32:24.168Z,21.40
2018-04-13T05:35:27.478Z,22.40
2018-04-13T05:38:30.806Z,21.47
2018-04-13T05:41:34.133Z,21.27
2018-04-13T05:44:37.453Z,21.60
2018-04-13T05:47:40.757Z,22.03
2018-04-13T05:50:44.081Z,23.40
2018-04-13T05:53:48.174Z,22.17
2018-04-13T05:56:51.493Z,21.97
2018-04-13T05:59:54.801Z,21.80
2018-04-13T06:02:58.129Z,19.73
2018-04-13T06:06:01.472Z,23.23
2018-04-13T06:09:06.378Z,21.80
2018-04-13T06:12:09.717Z,21.83
2018-04-13T06:15:13.018Z,21.67
2018-04-13T06:18:16.333Z,21.93
2018-04-13T06:21:19.660Z,23.70
2018-04-13T06:24:23.008Z,24.30
2018-04-13T06:27:27.070Z,24.07
2018-04-13T06:30:30.369Z,24.20
2018-04-13T06:33:33.697Z,24.20
2018-04-13T06:36:37.781Z,24.20
2018-04-13T06:39:41.078Z,23.90
2018-04-13T06:42:44.397Z,23.30
2018-04-13T06:45:47.718Z,22.87
2018-04-13T06:48:51.043Z,24.20
2018-04-13T06:51:54.373Z,23.80
2018-04-13T06:54:57.673Z,21.30
2018-04-13T06:58:00.997Z,22.03
2018-04-13T07:01:05.072Z,22.13
2018-04-13T07:04:08.413Z,22.93
2018-04-13T07:07:11.718Z,23.10
2018-04-13T07:10:15.042Z,22.77
2018-04-13T07:13:18.349Z,23.00
2018-04-13T07:16:21.674Z,23.13
2018-04-13T07:19:24.973Z,23.63
2018-04-13T07:22:28.293Z,23.10
2018-04-13T07:25:31.616Z,22.77
2018-04-13T07:28:34.920Z,22.20
2018-04-13T07:31:38.243Z,21.10
2018-04-13T07:34:41.548Z,23.10
2018-04-13T07:37:44.869Z,23.17
2018-04-13T07:40:48.934Z,24.07
2018-04-13T07:43:52.456Z,24.13
2018-04-13T07:46:56.352Z,23.20
2018-04-13T07:49:59.699Z,23.47
2018-04-13T07:53:03.753Z,25.00
2018-04-13T07:56:07.071Z,25.17
2018-04-13T07:59:10.397Z,21.90
2018-04-13T08:02:14.457Z,25.43
2018-04-13T08:05:17.789Z,23.00
2018-04-13T08:08:21.092Z,23.63
2018-04-13T08:11:24.425Z,24.23
2018-04-13T08:14:27.742Z,23.33
2018-04-13T08:17:31.078Z,26.00
2018-04-13T08:20:34.408Z,25.70
2018-04-13T08:23:37.709Z,23.60
2018-04-13T08:26:41.041Z,24.13
2018-04-13T08:29:44.379Z,23.70
2018-04-13T08:32:47.672Z,23.47
2018-04-13T08:35:51.749Z,23.07
2018-04-13T08:38:55.074Z,24.53
2018-04-13T08:41:58.385Z,24.40
2018-04-13T08:45:02.477Z,23.43
2018-04-13T08:48:05.777Z,24.27
2018-04-13T08:51:09.105Z,25.33
2018-04-13T08:54:12.508Z,25.17
2018-04-13T08:57:15.761Z,25.37
2018-04-13T09:00:19.090Z,23.17
2018-04-13T09:03:22.401Z,24.03
2018-04-13T09:06:25.799Z,23.60
2018-04-13T09:09:29.057Z,23.47
2018-04-13T09:12:33.163Z,22.90
2018-04-13T09:15:36.478Z,23.90
2018-04-13T09:18:40.581Z,24.70
2018-04-13T09:21:43.908Z,24.17
2018-04-13T09:24:47.241Z,25.43
2018-04-13T09:27:50.576Z,24.27
2018-04-13T09:30:54.661Z,23.47
2018-04-13T09:33:57.997Z,25.37
2018-04-13T09:37:02.069Z,22.73
2018-04-13T09:40:05.402Z,22.70
2018-04-13T09:43:09.482Z,22.77
2018-04-13T09:46:12.848Z,23.50
2018-04-13T09:49:16.901Z,22.60
2018-04-13T09:52:20.233Z,22.33
2018-04-13T09:55:23.546Z,22.23
2018-04-13T09:58:26.868Z,22.70
2018-04-13T10:01:35.805Z,22.50
2018-04-13T10:04:40.906Z,22.33
2018-04-13T10:07:44.232Z,19.90
2018-04-13T10:10:47.566Z,19.80
2018-04-13T10:13:51.657Z,22.13
2018-04-13T10:16:54.991Z,21.67
2018-04-13T10:19:59.060Z,20.80
2018-04-13T10:23:02.389Z,19.97
2018-04-13T10:26:05.721Z,22.37
2018-04-13T10:29:09.050Z,21.50
2018-04-13T10:32:12.356Z,22.27
2018-04-13T10:35:15.688Z,22.73
2018-04-13T10:38:19.764Z,22.60
2018-04-13T10:41:23.086Z,22.83
2018-04-13T10:44:26.423Z,23.83
2018-04-13T10:47:29.757Z,23.80
2018-04-13T10:50:33.101Z,23.43
2018-04-13T10:53:37.174Z,23.53
2018-04-13T10:56:40.517Z,23.43
2018-04-13T10:59:43.833Z,23.77
2018-04-13T11:02:47.181Z,22.77
2018-04-13T11:05:50.493Z,22.60
2018-04-13T11:08:54.587Z,22.73
2018-04-13T11:11:57.897Z,22.17
2018-04-13T11:15:01.222Z,22.83
2018-04-13T11:18:04.529Z,23.13
2018-04-13T11:21:07.854Z,22.40
2018-04-13T11:24:11.178Z,21.27
2018-04-13T11:27:14.498Z,22.93
2018-04-13T11:30:17.829Z,22.90
2018-04-13T11:33:21.864Z,22.23
2018-04-13T11:36:25.194Z,22.67
2018-04-13T11:39:28.518Z,23.53
2018-04-13T11:42:31.841Z,22.60
2018-04-13T11:45:35.171Z,23.43
2018-04-13T11:48:38.501Z,22.53
2018-04-13T11:51:42.497Z,23.07
2018-04-13T11:54:46.574Z,23.10
2018-04-13T11:57:49.917Z,22.07
2018-04-13T12:00:53.249Z,23.20
2018-04-13T12:03:56.573Z,23.77
2018-04-13T12:06:59.893Z,25.13
2018-04-13T12:10:03.983Z,25.70
2018-04-13T12:13:07.329Z,25.73
2018-04-13T12:16:11.405Z,23.90
2018-04-13T12:19:14.713Z,22.87
2018-04-13T12:22:18.812Z,22.60
2018-04-13T12:25:22.121Z,24.47
2018-04-13T12:28:25.444Z,25.93
2018-04-13T12:31:28.749Z,24.83
2018-04-13T12:34:32.079Z,24.83
2018-04-13T12:37:35.410Z,25.50
2018-04-13T12:40:39.513Z,23.83
2018-04-13T12:43:42.836Z,24.33
2018-04-13T12:46:46.909Z,25.40
2018-04-13T12:49:50.236Z,25.30
2018-04-13T12:52:54.311Z,25.47
2018-04-13T12:55:57.693Z,23.33
2018-04-13T12:59:00.981Z,25.87
2018-04-13T13:02:04.314Z,25.50
2018-04-13T13:05:07.629Z,25.33
2018-04-13T13:08:10.957Z,27.67
2018-04-13T13:11:14.289Z,27.17
2018-04-13T13:14:17.614Z,27.93
2018-04-13T13:17:20.945Z,28.17
2018-04-13T13:20:24.300Z,28.40
2018-04-13T13:23:27.614Z,26.80
2018-04-13T13:26:30.945Z,26.50
2018-04-13T13:29:34.273Z,29.67
2018-04-13T13:32:37.581Z,27.80
2018-04-13T13:35:40.909Z,28.77
2018-04-13T13:38:44.982Z,29.87
2018-04-13T13:41:48.330Z,30.40
2018-04-13T13:44:52.414Z,33.17
2018-04-13T13:47:55.743Z,29.70
2018-04-13T13:50:59.848Z,29.03
2018-04-13T13:54:03.154Z,31.23
2018-04-13T13:57:07.250Z,29.30
2018-04-13T14:00:10.569Z,29.37
2018-04-13T14:03:13.910Z,30.63
2018-04-13T14:06:17.221Z,30.63
2018-04-13T14:09:20.557Z,28.93
2018-04-13T14:12:23.870Z,30.27
2018-04-13T14:15:27.193Z,30.00
2018-04-13T14:18:30.500Z,33.77
2018-04-13T14:21:33.842Z,30.90
2018-04-13T14:24:37.953Z,34.93
2018-04-13T14:27:42.049Z,30.90
2018-04-13T14:30:45.400Z,34.27
2018-04-13T14:33:48.704Z,33.67
2018-04-13T14:36:52.043Z,31.17
2018-04-13T14:39:56.123Z,30.70
2018-04-13T14:42:59.477Z,32.53
2018-04-13T14:46:02.788Z,31.13
2018-04-13T14:49:06.125Z,29.20
2018-04-13T14:52:09.446Z,31.03
2018-04-13T14:55:13.547Z,28.87
2018-04-13T14:58:16.862Z,32.17
2018-04-13T15:01:20.958Z,27.80
2018-04-13T15:04:24.269Z,29.33
2018-04-13T15:07:27.597Z,26.20
2018-04-13T15:10:31.005Z,27.77
2018-04-13T15:13:34.328Z,27.47
2018-04-13T15:16:37.649Z,28.90
2018-04-13T15:19:40.970Z,32.97
2018-04-13T15:22:45.064Z,30.07
2018-04-13T15:25:48.385Z,28.63
2018-04-13T15:28:51.738Z,28.30
2018-04-13T15:31:55.049Z,29.13
2018-04-13T15:34:58.378Z,29.83
2018-04-13T15:38:01.693Z,27.70
2018-04-13T15:41:05.023Z,27.73
2018-04-13T15:44:08.332Z,30.47
2018-04-13T15:47:11.653Z,29.60
2018-04-13T15:50:14.965Z,30.63
2018-04-13T15:53:18.285Z,31.47
2018-04-13T15:56:21.631Z,30.37
2018-04-13T15:59:24.945Z,33.73
2018-04-13T16:02:29.033Z,29.87
2018-04-13T16:05:32.366Z,29.30
2018-04-13T16:08:35.702Z,30.43
2018-04-13T16:11:39.010Z,30.53
2018-04-13T16:14:42.354Z,29.30
2018-04-13T16:17:45.678Z,30.23
2018-04-13T16:20:49.021Z,31.10
2018-04-13T16:23:52.333Z,29.17
2018-04-13T16:26:56.421Z,29.50
2018-04-13T16:29:59.770Z,30.87
2018-04-13T16:33:03.086Z,28.67
2018-04-13T16:36:06.419Z,28.13
2018-04-13T16:39:09.733Z,28.47
2018-04-13T16:42:13.841Z,28.47
2018-04-13T16:45:17.945Z,27.80
2018-04-13T16:48:21.271Z,28.03
2018-04-13T16:51:24.577Z,28.10
2018-04-13T16:54:27.906Z,27.33
2018-04-13T16:57:31.218Z,26.77
2018-04-13T17:00:34.556Z,26.97
2018-04-13T17:03:37.885Z,26.33
2018-04-13T17:06:41.202Z,28.23
2018-04-13T17:09:44.525Z,29.10
2018-04-13T17:12:48.601Z,27.47
2018-04-13T17:15:51.933Z,27.53
2018-04-13T17:18:55.244Z,31.70
2018-04-13T17:21:58.566Z,32.13
2018-04-13T17:25:01.891Z,27.77
2018-04-13T17:28:05.210Z,27.73
2018-04-13T17:31:08.534Z,33.30
2018-04-13T17:34:12.624Z,25.60
2018-04-13T17:37:15.929Z,27.67
2018-04-13T17:40:19.266Z,39.53
2018-04-13T17:43:22.569Z,35.27
2018-04-13T17:46:25.889Z,33.87
2018-04-13T17:49:29.189Z,25.60
2018-04-13T17:52:32.519Z,25.80
2018-04-13T17:55:36.607Z,30.80
2018-04-13T17:58:39.910Z,26.73
2018-04-13T18:01:43.236Z,24.33
2018-04-13T18:04:47.321Z,25.97
2018-04-13T18:07:50.648Z,27.30
2018-04-13T18:10:54.720Z,24.13
2018-04-13T18:13:58.041Z,34.90
2018-04-13T18:17:02.117Z,23.77
2018-04-13T18:20:05.438Z,24.03
2018-04-13T18:23:08.737Z,26.70
2018-04-13T18:26:12.049Z,26.83
2018-04-13T18:29:16.116Z,24.33
2018-04-13T18:32:19.445Z,27.83
2018-04-13T18:35:22.768Z,29.53
2018-04-13T18:38:26.070Z,25.00
2018-04-13T18:41:29.397Z,33.63
2018-04-13T18:44:32.699Z,47.63
2018-04-13T18:47:36.054Z,29.73
2018-04-13T18:50:40.133Z,24.93
2018-04-13T18:53:43.454Z,28.07
2018-04-13T18:56:47.524Z,24.10
2018-04-13T18:59:50.868Z,31.33
2018-04-13T19:02:54.929Z,22.37
2018-04-13T19:05:58.253Z,21.53
2018-04-13T19:09:01.573Z,32.73
2018-04-13T19:12:04.877Z,25.30
2018-04-13T19:15:08.210Z,24.03
2018-04-13T19:18:11.527Z,26.60
2018-04-13T19:21:14.874Z,27.93
2018-04-13T19:24:18.192Z,30.30
2018-04-13T19:27:21.508Z,27.63
2018-04-13T19:30:24.804Z,24.63
2018-04-13T19:33:28.132Z,20.77
2018-04-13T19:36:31.433Z,22.47
2018-04-13T19:39:34.758Z,23.63
2018-04-13T19:42:38.098Z,22.10
2018-04-13T19:45:41.400Z,26.50
2018-04-13T19:48:44.717Z,22.20
2018-04-13T19:51:48.018Z,20.80
2018-04-13T19:54:51.352Z,21.40
2018-04-13T19:57:54.693Z,23.30
2018-04-13T20:00:57.989Z,24.13
2018-04-13T20:04:01.322Z,25.73
2018-04-13T20:07:05.394Z,21.47
2018-04-13T20:10:08.709Z,31.07
2018-04-13T20:13:12.013Z,23.37
2018-04-13T20:16:21.881Z,21.63
2018-04-13T20:19:25.977Z,31.60
2018-04-13T20:22:29.287Z,23.83
2018-04-13T20:25:33.381Z,23.73
2018-04-13T20:28:36.672Z,24.70
2018-04-13T20:31:40.001Z,34.30
2018-04-13T20:34:44.071Z,38.97
2018-04-13T20:37:47.398Z,22.37
2018-04-13T20:40:51.481Z,21.93
2018-04-13T20:43:54.807Z,21.13
2018-04-13T20:46:58.901Z,22.03
2018-04-13T20:50:02.224Z,26.50
2018-04-13T20:53:06.314Z,19.77
2018-04-13T20:56:09.634Z,21.27
2018-04-13T20:59:13.726Z,21.23
2018-04-13T21:02:17.020Z,21.97
2018-04-13T21:05:20.329Z,21.67
2018-04-13T21:08:23.645Z,23.30
2018-04-13T21:11:27.725Z,23.00
2018-04-13T21:14:31.053Z,22.47
2018-04-13T21:17:35.116Z,25.70
2018-04-13T21:20:38.436Z,21.00
2018-04-13T21:23:41.750Z,22.00
2018-04-13T21:26:45.838Z,21.33
2018-04-13T21:29:49.149Z,22.00
2018-04-13T21:32:53.253Z,23.13
2018-04-13T21:35:56.581Z,21.53
2018-04-13T21:39:00.661Z,20.70
2018-04-13T21:42:03.974Z,21.47
2018-04-13T21:45:07.303Z,22.20
2018-04-13T21:48:10.630Z,21.07
2018-04-13T21:51:13.945Z,22.87
2018-04-13T21:54:17.245Z,21.53
2018-04-13T21:57:20.564Z,21.73
2018-04-13T22:00:23.869Z,20.67
2018-04-13T22:03:27.949Z,21.80
2018-04-13T22:06:31.249Z,21.97
2018-04-13T22:09:34.571Z,22.13
2018-04-13T22:12:56.430Z,21.93
2018-04-13T22:15:59.753Z,22.13
2018-04-13T22:19:03.050Z,22.47
2018-04-13T22:22:06.371Z,22.70
2018-04-13T22:25:09.688Z,25.03
2018-04-13T22:28:13.749Z,25.40
2018-04-13T22:31:17.069Z,30.60
2018-04-13T22:34:20.373Z,43.20
2018-04-13T22:37:23.714Z,32.87
2018-04-13T22:40:27.013Z,28.87
2018-04-13T22:43:30.446Z,28.83
2018-04-13T22:46:33.768Z,27.10
2018-04-13T22:49:37.081Z,28.60
2018-04-13T22:52:41.189Z,29.27
2018-04-13T22:55:44.484Z,27.83
2018-04-13T22:58:47.801Z,29.00
2018-04-13T23:01:51.886Z,29.37
2018-04-13T23:04:55.210Z,28.33
2018-04-13T23:07:58.513Z,28.83
2018-04-13T23:11:01.809Z,28.53
2018-04-13T23:14:05.896Z,29.30
2018-04-13T23:17:09.203Z,30.47
2018-04-13T23:20:13.289Z,28.87
2018-04-13T23:23:16.591Z,31.13
2018-04-13T23:26:19.909Z,28.53
2018-04-13T23:29:23.968Z,31.57
2018-04-13T23:32:27.285Z,28.10
2018-04-13T23:35:30.590Z,27.57
2018-04-13T23:38:33.908Z,27.57
2018-04-13T23:41:37.992Z,27.50
2018-04-13T23:44:41.291Z,28.90
2018-04-13T23:47:44.609Z,28.77
2018-04-13T23:50:47.907Z,27.57
2018-04-13T23:53:51.237Z,26.77
2018-04-13T23:56:54.541Z,25.77
2018-04-13T23:59:57.857Z,25.97
